sensor_id;sensor_type;location;lat;lon;timestamp;temperature;humidity
14769;DHT22;7476;49.404;11.152;2022-11-23T00:01:25;5.40;99.90
14769;DHT22;7476;49.404;11.152;2022-11-23T00:03:53;5.30;99.90
14769;DHT22;7476;49.404;11.152;2022-11-23T00:06:21;5.20;99.90
14769;DHT22;7476;49.404;11.152;2022-11-23T00:08:49;5.10;99.90
14769;DHT22;7476;49.404;11.152;2022-11-23T00:11:16;5.00;99.90
14769;DHT22;7476;49.404;11.152;2022-11-23T00:13:43;5.00;99.90
14769;DHT22;7476;49.404;11.152;2022-11-23T00:16:13;5.00;99.90
14769;DHT22;7476;49.404;11.152;2022-11-23T00:18:40;4.90;99.90
14769;DHT22;7476;49.404;11.152;2022-11-23T00:21:08;4.90;99.90
14769;DHT22;7476;49.404;11.152;2022-11-23T00:23:35;5.00;99.90
14769;DHT22;7476;49.404;11.152;2022-11-23T00:26:04;5.00;99.90
14769;DHT22;7476;49.404;11.152;2022-11-23T00:28:31;5.00;99.90
14769;DHT22;7476;49.404;11.152;2022-11-23T00:30:59;5.00;99.90
14769;DHT22;7476;49.404;11.152;2022-11-23T00:33:26;5.00;99.90
14769;DHT22;7476;49.404;11.152;2022-11-23T00:35:59;4.80;99.90
14769;DHT22;7476;49.404;11.152;2022-11-23T00:38:26;4.60;99.90
14769;DHT22;7476;49.404;11.152;2022-11-23T00:40:57;4.50;99.90
14769;DHT22;7476;49.404;11.152;2022-11-23T00:43:26;4.30;99.90
14769;DHT22;7476;49.404;11.152;2022-11-23T00:46:04;4.20;99.90
14769;DHT22;7476;49.404;11.152;2022-11-23T00:48:31;4.20;99.90
14769;DHT22;7476;49.404;11.152;2022-11-23T00:50:59;4.10;99.90
14769;DHT22;7476;49.404;11.152;2022-11-23T00:53:26;4.10;99.90
14769;DHT22;7476;49.404;11.152;2022-11-23T00:55:54;4.10;99.90
14769;DHT22;7476;49.404;11.152;2022-11-23T00:58:21;4.00;99.90
14769;DHT22;7476;49.404;11.152;2022-11-23T01:00:54;3.90;99.90
14769;DHT22;7476;49.404;11.152;2022-11-23T01:03:26;3.70;99.90
14769;DHT22;7476;49.404;11.152;2022-11-23T01:05:53;3.50;99.90
14769;DHT22;7476;49.404;11.152;2022-11-23T01:08:20;3.50;99.90
14769;DHT22;7476;49.404;11.152;2022-11-23T01:10:46;3.40;99.90
14769;DHT22;7476;49.404;11.152;2022-11-23T01:13:13;3.40;99.90
14769;DHT22;7476;49.404;11.152;2022-11-23T01:15:48;3.50;99.90
14769;DHT22;7476;49.404;11.152;2022-11-23T01:18:16;3.40;99.90
14769;DHT22;7476;49.404;11.152;2022-11-23T01:20:43;3.40;99.90
14769;DHT22;7476;49.404;11.152;2022-11-23T01:23:10;3.40;99.90
14769;DHT22;7476;49.404;11.152;2022-11-23T01:25:37;3.40;99.90
14769;DHT22;7476;49.404;11.152;2022-11-23T01:28:04;3.30;99.90
14769;DHT22;7476;49.404;11.152;2022-11-23T01:30:31;3.20;99.90
14769;DHT22;7476;49.404;11.152;2022-11-23T01:32:59;3.00;99.90
14769;DHT22;7476;49.404;11.152;2022-11-23T01:35:29;3.00;99.90
14769;DHT22;7476;49.404;11.152;2022-11-23T01:37:55;2.90;99.90
14769;DHT22;7476;49.404;11.152;2022-11-23T01:40:22;2.70;99.90
14769;DHT22;7476;49.404;11.152;2022-11-23T01:42:53;2.70;99.90
14769;DHT22;7476;49.404;11.152;2022-11-23T01:45:35;2.70;99.90
14769;DHT22;7476;49.404;11.152;2022-11-23T01:48:05;2.60;99.90
14769;DHT22;7476;49.404;11.152;2022-11-23T01:50:36;2.50;99.90
14769;DHT22;7476;49.404;11.152;2022-11-23T01:53:04;2.30;99.90
14769;DHT22;7476;49.404;11.152;2022-11-23T01:55:32;2.00;99.90
14769;DHT22;7476;49.404;11.152;2022-11-23T01:58:00;2.00;99.90
14769;DHT22;7476;49.404;11.152;2022-11-23T02:00:28;2.00;99.90
14769;DHT22;7476;49.404;11.152;2022-11-23T02:02:57;1.90;99.90
14769;DHT22;7476;49.404;11.152;2022-11-23T02:05:28;1.90;99.90
14769;DHT22;7476;49.404;11.152;2022-11-23T02:07:59;1.90;99.90
14769;DHT22;7476;49.404;11.152;2022-11-23T02:10:28;1.80;99.90
14769;DHT22;7476;49.404;11.152;2022-11-23T02:12:56;1.70;99.90
14769;DHT22;7476;49.404;11.152;2022-11-23T02:15:25;1.70;99.90
14769;DHT22;7476;49.404;11.152;2022-11-23T02:17:52;1.50;99.90
14769;DHT22;7476;49.404;11.152;2022-11-23T02:20:20;1.50;99.90
14769;DHT22;7476;49.404;11.152;2022-11-23T02:22:56;1.40;99.90
14769;DHT22;7476;49.404;11.152;2022-11-23T02:25:33;1.40;99.90
14769;DHT22;7476;49.404;11.152;2022-11-23T02:28:04;1.50;99.90
14769;DHT22;7476;49.404;11.152;2022-11-23T02:30:33;1.40;99.90
14769;DHT22;7476;49.404;11.152;2022-11-23T02:33:03;1.50;99.90
14769;DHT22;7476;49.404;11.152;2022-11-23T02:35:30;1.40;99.90
14769;DHT22;7476;49.404;11.152;2022-11-23T02:37:58;1.50;99.90
14769;DHT22;7476;49.404;11.152;2022-11-23T02:40:27;1.50;99.90
14769;DHT22;7476;49.404;11.152;2022-11-23T02:42:56;1.70;99.90
14769;DHT22;7476;49.404;11.152;2022-11-23T02:45:30;1.90;99.90
14769;DHT22;7476;49.404;11.152;2022-11-23T02:47:59;2.10;99.90
14769;DHT22;7476;49.404;11.152;2022-11-23T02:50:26;2.10;99.90
14769;DHT22;7476;49.404;11.152;2022-11-23T02:52:53;2.30;99.90
14769;DHT22;7476;49.404;11.152;2022-11-23T02:55:19;2.40;99.90
14769;DHT22;7476;49.404;11.152;2022-11-23T02:57:46;2.40;99.90
14769;DHT22;7476;49.404;11.152;2022-11-23T03:00:14;2.50;99.90
14769;DHT22;7476;49.404;11.152;2022-11-23T03:02:42;2.40;99.90
14769;DHT22;7476;49.404;11.152;2022-11-23T03:05:09;2.40;99.90
14769;DHT22;7476;49.404;11.152;2022-11-23T03:07:36;2.40;99.90
14769;DHT22;7476;49.404;11.152;2022-11-23T03:10:03;2.30;99.90
14769;DHT22;7476;49.404;11.152;2022-11-23T03:12:30;2.30;99.90
14769;DHT22;7476;49.404;11.152;2022-11-23T03:14:57;2.40;99.90
14769;DHT22;7476;49.404;11.152;2022-11-23T03:17:24;2.40;99.90
14769;DHT22;7476;49.404;11.152;2022-11-23T03:19:53;2.20;99.90
14769;DHT22;7476;49.404;11.152;2022-11-23T03:22:20;2.30;99.90
14769;DHT22;7476;49.404;11.152;2022-11-23T03:24:46;2.40;99.90
14769;DHT22;7476;49.404;11.152;2022-11-23T03:27:13;2.40;99.90
14769;DHT22;7476;49.404;11.152;2022-11-23T03:29:40;2.40;99.90
14769;DHT22;7476;49.404;11.152;2022-11-23T03:32:06;2.40;99.90
14769;DHT22;7476;49.404;11.152;2022-11-23T03:34:33;2.40;99.90
14769;DHT22;7476;49.404;11.152;2022-11-23T03:37:01;2.40;99.90
14769;DHT22;7476;49.404;11.152;2022-11-23T03:39:28;2.40;99.90
14769;DHT22;7476;49.404;11.152;2022-11-23T03:41:54;2.30;99.90
14769;DHT22;7476;49.404;11.152;2022-11-23T03:44:21;2.30;99.90
14769;DHT22;7476;49.404;11.152;2022-11-23T03:46:48;2.30;99.90
14769;DHT22;7476;49.404;11.152;2022-11-23T03:49:15;2.30;99.90
14769;DHT22;7476;49.404;11.152;2022-11-23T03:51:42;2.60;99.90
14769;DHT22;7476;49.404;11.152;2022-11-23T03:54:10;2.40;99.90
14769;DHT22;7476;49.404;11.152;2022-11-23T03:56:37;2.40;99.90
14769;DHT22;7476;49.404;11.152;2022-11-23T03:59:04;2.40;99.90
14769;DHT22;7476;49.404;11.152;2022-11-23T04:01:31;2.40;99.90
14769;DHT22;7476;49.404;11.152;2022-11-23T04:03:58;2.30;99.90
14769;DHT22;7476;49.404;11.152;2022-11-23T04:06:24;2.00;99.90
14769;DHT22;7476;49.404;11.152;2022-11-23T04:08:51;2.00;99.90
14769;DHT22;7476;49.404;11.152;2022-11-23T04:11:19;2.00;99.90
14769;DHT22;7476;49.404;11.152;2022-11-23T04:13:46;1.90;99.90
14769;DHT22;7476;49.404;11.152;2022-11-23T04:16:13;1.90;99.90
14769;DHT22;7476;49.404;11.152;2022-11-23T04:18:40;1.90;99.90
14769;DHT22;7476;49.404;11.152;2022-11-23T04:21:06;1.70;99.90
14769;DHT22;7476;49.404;11.152;2022-11-23T04:23:33;1.80;99.90
14769;DHT22;7476;49.404;11.152;2022-11-23T04:26:00;1.60;99.90
14769;DHT22;7476;49.404;11.152;2022-11-23T04:28:28;1.30;99.90
14769;DHT22;7476;49.404;11.152;2022-11-23T04:30:54;1.00;99.90
14769;DHT22;7476;49.404;11.152;2022-11-23T04:33:23;1.00;99.90
14769;DHT22;7476;49.404;11.152;2022-11-23T04:35:50;1.00;99.90
14769;DHT22;7476;49.404;11.152;2022-11-23T04:38:16;1.20;99.90
14769;DHT22;7476;49.404;11.152;2022-11-23T04:40:45;1.30;99.90
14769;DHT22;7476;49.404;11.152;2022-11-23T04:43:12;1.20;99.90
14769;DHT22;7476;49.404;11.152;2022-11-23T04:45:40;1.40;99.90
14769;DHT22;7476;49.404;11.152;2022-11-23T04:48:07;1.50;99.90
14769;DHT22;7476;49.404;11.152;2022-11-23T04:50:34;1.50;99.90
14769;DHT22;7476;49.404;11.152;2022-11-23T04:53:02;1.60;99.90
14769;DHT22;7476;49.404;11.152;2022-11-23T04:55:29;1.70;99.90
14769;DHT22;7476;49.404;11.152;2022-11-23T04:57:56;1.80;99.90
14769;DHT22;7476;49.404;11.152;2022-11-23T05:00:22;1.90;99.90
14769;DHT22;7476;49.404;11.152;2022-11-23T05:02:50;2.00;99.90
14769;DHT22;7476;49.404;11.152;2022-11-23T05:05:17;2.00;99.90
14769;DHT22;7476;49.404;11.152;2022-11-23T05:07:44;2.10;99.90
14769;DHT22;7476;49.404;11.152;2022-11-23T05:10:11;2.20;99.90
14769;DHT22;7476;49.404;11.152;2022-11-23T05:12:37;2.40;99.90
14769;DHT22;7476;49.404;11.152;2022-11-23T05:15:05;2.50;99.90
14769;DHT22;7476;49.404;11.152;2022-11-23T05:17:32;2.60;99.90
14769;DHT22;7476;49.404;11.152;2022-11-23T05:20:00;2.60;99.90
14769;DHT22;7476;49.404;11.152;2022-11-23T05:22:26;2.60;99.90
14769;DHT22;7476;49.404;11.152;2022-11-23T05:24:53;2.60;99.90
14769;DHT22;7476;49.404;11.152;2022-11-23T05:27:20;2.60;99.90
14769;DHT22;7476;49.404;11.152;2022-11-23T05:29:47;2.70;99.90
14769;DHT22;7476;49.404;11.152;2022-11-23T05:32:13;2.60;99.90
14769;DHT22;7476;49.404;11.152;2022-11-23T05:34:40;2.60;99.90
14769;DHT22;7476;49.404;11.152;2022-11-23T05:37:08;2.60;99.90
14769;DHT22;7476;49.404;11.152;2022-11-23T05:39:35;2.60;99.90
14769;DHT22;7476;49.404;11.152;2022-11-23T05:42:01;2.70;99.90
14769;DHT22;7476;49.404;11.152;2022-11-23T05:44:28;2.70;99.90
14769;DHT22;7476;49.404;11.152;2022-11-23T05:46:55;2.80;99.90
14769;DHT22;7476;49.404;11.152;2022-11-23T05:49:22;2.80;99.90
14769;DHT22;7476;49.404;11.152;2022-11-23T05:51:48;2.80;99.90
14769;DHT22;7476;49.404;11.152;2022-11-23T05:54:16;2.80;99.90
14769;DHT22;7476;49.404;11.152;2022-11-23T05:56:43;2.80;99.90
14769;DHT22;7476;49.404;11.152;2022-11-23T05:59:10;2.80;99.90
14769;DHT22;7476;49.404;11.152;2022-11-23T06:01:36;2.90;99.90
14769;DHT22;7476;49.404;11.152;2022-11-23T06:04:03;2.90;99.90
14769;DHT22;7476;49.404;11.152;2022-11-23T06:06:31;2.90;99.90
14769;DHT22;7476;49.404;11.152;2022-11-23T06:08:58;3.00;99.90
14769;DHT22;7476;49.404;11.152;2022-11-23T06:11:26;3.10;99.90
14769;DHT22;7476;49.404;11.152;2022-11-23T06:13:53;3.10;99.90
14769;DHT22;7476;49.404;11.152;2022-11-23T06:16:19;3.20;99.90
14769;DHT22;7476;49.404;11.152;2022-11-23T06:18:46;3.20;99.90
14769;DHT22;7476;49.404;11.152;2022-11-23T06:21:13;3.20;99.90
14769;DHT22;7476;49.404;11.152;2022-11-23T06:23:39;3.20;99.90
14769;DHT22;7476;49.404;11.152;2022-11-23T06:26:06;3.30;99.90
14769;DHT22;7476;49.404;11.152;2022-11-23T06:28:34;3.30;99.90
14769;DHT22;7476;49.404;11.152;2022-11-23T06:31:02;3.30;99.90
14769;DHT22;7476;49.404;11.152;2022-11-23T06:33:29;3.40;99.90
14769;DHT22;7476;49.404;11.152;2022-11-23T06:35:58;3.40;99.90
14769;DHT22;7476;49.404;11.152;2022-11-23T06:38:25;3.30;99.90
14769;DHT22;7476;49.404;11.152;2022-11-23T06:40:52;3.40;99.90
14769;DHT22;7476;49.404;11.152;2022-11-23T06:43:22;3.40;99.90
14769;DHT22;7476;49.404;11.152;2022-11-23T06:45:50;3.50;99.90
14769;DHT22;7476;49.404;11.152;2022-11-23T06:48:17;3.50;99.90
14769;DHT22;7476;49.404;11.152;2022-11-23T06:50:43;3.60;99.90
14769;DHT22;7476;49.404;11.152;2022-11-23T06:53:10;3.60;99.90
14769;DHT22;7476;49.404;11.152;2022-11-23T06:55:37;3.60;99.90
14769;DHT22;7476;49.404;11.152;2022-11-23T06:58:05;3.60;99.90
14769;DHT22;7476;49.404;11.152;2022-11-23T07:00:32;3.60;99.90
14769;DHT22;7476;49.404;11.152;2022-11-23T07:03:00;3.60;99.90
14769;DHT22;7476;49.404;11.152;2022-11-23T07:05:27;3.70;99.90
14769;DHT22;7476;49.404;11.152;2022-11-23T07:07:54;3.70;99.90
14769;DHT22;7476;49.404;11.152;2022-11-23T07:10:20;3.70;99.90
14769;DHT22;7476;49.404;11.152;2022-11-23T07:12:47;3.70;99.90
14769;DHT22;7476;49.404;11.152;2022-11-23T07:15:14;3.80;99.90
14769;DHT22;7476;49.404;11.152;2022-11-23T07:17:41;3.80;99.90
14769;DHT22;7476;49.404;11.152;2022-11-23T07:20:11;3.90;99.90
14769;DHT22;7476;49.404;11.152;2022-11-23T07:22:38;3.90;99.90
14769;DHT22;7476;49.404;11.152;2022-11-23T07:25:05;4.00;99.90
14769;DHT22;7476;49.404;11.152;2022-11-23T07:27:32;4.00;99.90
14769;DHT22;7476;49.404;11.152;2022-11-23T07:29:59;4.00;99.90
14769;DHT22;7476;49.404;11.152;2022-11-23T07:32:25;4.10;99.90
14769;DHT22;7476;49.404;11.152;2022-11-23T07:34:52;4.10;99.90
14769;DHT22;7476;49.404;11.152;2022-11-23T07:37:20;4.10;99.90
14769;DHT22;7476;49.404;11.152;2022-11-23T07:39:47;4.10;99.90
14769;DHT22;7476;49.404;11.152;2022-11-23T07:42:13;4.10;99.90
14769;DHT22;7476;49.404;11.152;2022-11-23T07:44:40;4.10;99.90
14769;DHT22;7476;49.404;11.152;2022-11-23T07:47:07;4.20;99.90
14769;DHT22;7476;49.404;11.152;2022-11-23T07:49:33;4.20;99.90
14769;DHT22;7476;49.404;11.152;2022-11-23T07:52:02;4.20;99.90
14769;DHT22;7476;49.404;11.152;2022-11-23T07:54:30;4.30;99.90
14769;DHT22;7476;49.404;11.152;2022-11-23T07:56:56;4.30;99.90
14769;DHT22;7476;49.404;11.152;2022-11-23T07:59:23;4.30;99.90
14769;DHT22;7476;49.404;11.152;2022-11-23T08:01:50;4.40;99.90
14769;DHT22;7476;49.404;11.152;2022-11-23T08:04:17;4.40;99.90
14769;DHT22;7476;49.404;11.152;2022-11-23T08:06:44;4.50;99.90
14769;DHT22;7476;49.404;11.152;2022-11-23T08:09:11;4.50;99.90
14769;DHT22;7476;49.404;11.152;2022-11-23T08:11:39;4.50;99.90
14769;DHT22;7476;49.404;11.152;2022-11-23T08:14:05;4.60;99.90
14769;DHT22;7476;49.404;11.152;2022-11-23T08:16:32;4.60;99.90
14769;DHT22;7476;49.404;11.152;2022-11-23T08:18:59;4.60;99.90
14769;DHT22;7476;49.404;11.152;2022-11-23T08:21:25;4.70;99.90
14769;DHT22;7476;49.404;11.152;2022-11-23T08:23:52;4.70;99.90
14769;DHT22;7476;49.404;11.152;2022-11-23T08:26:19;4.70;99.90
14769;DHT22;7476;49.404;11.152;2022-11-23T08:28:47;4.70;99.90
14769;DHT22;7476;49.404;11.152;2022-11-23T08:31:14;4.70;99.90
14769;DHT22;7476;49.404;11.152;2022-11-23T08:33:40;4.70;99.90
14769;DHT22;7476;49.404;11.152;2022-11-23T08:36:08;4.80;99.90
14769;DHT22;7476;49.404;11.152;2022-11-23T08:38:35;4.80;99.90
14769;DHT22;7476;49.404;11.152;2022-11-23T08:41:02;4.90;99.90
14769;DHT22;7476;49.404;11.152;2022-11-23T08:43:30;4.90;99.90
14769;DHT22;7476;49.404;11.152;2022-11-23T08:45:59;4.90;99.90
14769;DHT22;7476;49.404;11.152;2022-11-23T08:48:26;5.00;99.90
14769;DHT22;7476;49.404;11.152;2022-11-23T08:50:53;5.10;99.90
14769;DHT22;7476;49.404;11.152;2022-11-23T08:53:20;5.20;99.90
14769;DHT22;7476;49.404;11.152;2022-11-23T08:55:46;5.20;99.90
14769;DHT22;7476;49.404;11.152;2022-11-23T08:58:13;5.40;99.90
14769;DHT22;7476;49.404;11.152;2022-11-23T09:00:40;5.40;99.90
14769;DHT22;7476;49.404;11.152;2022-11-23T09:03:08;5.60;99.90
14769;DHT22;7476;49.404;11.152;2022-11-23T09:05:36;5.60;99.90
14769;DHT22;7476;49.404;11.152;2022-11-23T09:08:03;5.70;99.90
14769;DHT22;7476;49.404;11.152;2022-11-23T09:10:30;5.80;99.90
14769;DHT22;7476;49.404;11.152;2022-11-23T09:12:57;5.90;99.90
14769;DHT22;7476;49.404;11.152;2022-11-23T09:15:24;6.10;99.90
14769;DHT22;7476;49.404;11.152;2022-11-23T09:17:51;6.20;99.90
14769;DHT22;7476;49.404;11.152;2022-11-23T09:20:19;6.30;99.90
14769;DHT22;7476;49.404;11.152;2022-11-23T09:22:49;6.20;99.90
14769;DHT22;7476;49.404;11.152;2022-11-23T09:25:16;6.50;99.90
14769;DHT22;7476;49.404;11.152;2022-11-23T09:27:43;6.50;99.90
14769;DHT22;7476;49.404;11.152;2022-11-23T09:30:11;6.70;99.90
14769;DHT22;7476;49.404;11.152;2022-11-23T09:32:38;6.90;99.90
14769;DHT22;7476;49.404;11.152;2022-11-23T09:35:06;7.00;99.90
14769;DHT22;7476;49.404;11.152;2022-11-23T09:37:34;7.20;99.90
14769;DHT22;7476;49.404;11.152;2022-11-23T09:40:01;7.40;99.90
14769;DHT22;7476;49.404;11.152;2022-11-23T09:42:54;7.60;99.90
14769;DHT22;7476;49.404;11.152;2022-11-23T09:45:27;7.70;99.90
14769;DHT22;7476;49.404;11.152;2022-11-23T09:48:28;7.70;99.90
14769;DHT22;7476;49.404;11.152;2022-11-23T09:50:59;7.80;99.90
14769;DHT22;7476;49.404;11.152;2022-11-23T09:53:32;8.10;99.90
14769;DHT22;7476;49.404;11.152;2022-11-23T09:56:01;8.50;99.90
14769;DHT22;7476;49.404;11.152;2022-11-23T09:58:32;8.60;99.90
14769;DHT22;7476;49.404;11.152;2022-11-23T10:01:03;8.80;99.90
14769;DHT22;7476;49.404;11.152;2022-11-23T10:03:33;8.80;99.90
14769;DHT22;7476;49.404;11.152;2022-11-23T10:06:11;9.10;99.90
14769;DHT22;7476;49.404;11.152;2022-11-23T10:09:04;9.00;99.90
14769;DHT22;7476;49.404;11.152;2022-11-23T10:12:03;9.50;99.90
14769;DHT22;7476;49.404;11.152;2022-11-23T10:14:47;10.10;99.90
14769;DHT22;7476;49.404;11.152;2022-11-23T10:17:23;9.90;99.90
14769;DHT22;7476;49.404;11.152;2022-11-23T10:20:02;9.70;99.90
14769;DHT22;7476;49.404;11.152;2022-11-23T10:22:33;9.70;99.90
14769;DHT22;7476;49.404;11.152;2022-11-23T10:25:13;9.60;99.90
14769;DHT22;7476;49.404;11.152;2022-11-23T10:27:41;9.60;99.90
14769;DHT22;7476;49.404;11.152;2022-11-23T10:30:11;10.00;99.90
14769;DHT22;7476;49.404;11.152;2022-11-23T10:32:43;10.30;99.90
14769;DHT22;7476;49.404;11.152;2022-11-23T10:35:12;10.00;99.90
14769;DHT22;7476;49.404;11.152;2022-11-23T10:37:40;10.50;99.90
14769;DHT22;7476;49.404;11.152;2022-11-23T10:40:15;11.20;99.90
14769;DHT22;7476;49.404;11.152;2022-11-23T10:42:46;12.50;99.90
14769;DHT22;7476;49.404;11.152;2022-11-23T10:45:23;13.50;99.90
14769;DHT22;7476;49.404;11.152;2022-11-23T10:47:51;13.80;99.90
14769;DHT22;7476;49.404;11.152;2022-11-23T10:50:24;13.90;99.90
14769;DHT22;7476;49.404;11.152;2022-11-23T10:52:53;13.50;99.90
14769;DHT22;7476;49.404;11.152;2022-11-23T10:55:26;13.00;99.90
14769;DHT22;7476;49.404;11.152;2022-11-23T10:57:54;13.40;99.90
14769;DHT22;7476;49.404;11.152;2022-11-23T11:00:22;13.70;99.90
14769;DHT22;7476;49.404;11.152;2022-11-23T11:02:50;14.10;99.90
14769;DHT22;7476;49.404;11.152;2022-11-23T11:05:29;13.70;99.90
14769;DHT22;7476;49.404;11.152;2022-11-23T11:07:57;12.80;99.90
14769;DHT22;7476;49.404;11.152;2022-11-23T11:10:38;13.50;99.90
14769;DHT22;7476;49.404;11.152;2022-11-23T11:13:21;13.30;99.90
14769;DHT22;7476;49.404;11.152;2022-11-23T11:15:54;13.80;99.90
14769;DHT22;7476;49.404;11.152;2022-11-23T11:18:24;13.50;99.90
14769;DHT22;7476;49.404;11.152;2022-11-23T11:20:56;13.40;99.90
14769;DHT22;7476;49.404;11.152;2022-11-23T11:23:24;13.80;99.90
14769;DHT22;7476;49.404;11.152;2022-11-23T11:26:05;14.60;99.90
14769;DHT22;7476;49.404;11.152;2022-11-23T11:28:36;14.00;99.90
14769;DHT22;7476;49.404;11.152;2022-11-23T11:31:24;14.80;99.90
14769;DHT22;7476;49.404;11.152;2022-11-23T11:33:57;14.80;99.90
14769;DHT22;7476;49.404;11.152;2022-11-23T11:36:33;14.90;99.90
14769;DHT22;7476;49.404;11.152;2022-11-23T11:39:05;14.20;99.90
14769;DHT22;7476;49.404;11.152;2022-11-23T11:41:38;15.20;99.90
14769;DHT22;7476;49.404;11.152;2022-11-23T11:44:11;15.20;99.90
14769;DHT22;7476;49.404;11.152;2022-11-23T11:46:42;15.10;99.90
14769;DHT22;7476;49.404;11.152;2022-11-23T11:49:13;14.60;99.90
14769;DHT22;7476;49.404;11.152;2022-11-23T11:51:46;14.80;99.90
14769;DHT22;7476;49.404;11.152;2022-11-23T11:54:19;14.80;99.90
14769;DHT22;7476;49.404;11.152;2022-11-23T11:56:51;14.20;99.90
14769;DHT22;7476;49.404;11.152;2022-11-23T11:59:23;14.60;99.90
14769;DHT22;7476;49.404;11.152;2022-11-23T12:01:56;14.70;99.90
14769;DHT22;7476;49.404;11.152;2022-11-23T12:04:30;15.10;99.90
14769;DHT22;7476;49.404;11.152;2022-11-23T12:07:06;15.80;99.90
14769;DHT22;7476;49.404;11.152;2022-11-23T12:09:37;16.20;99.90
14769;DHT22;7476;49.404;11.152;2022-11-23T12:12:11;15.50;99.90
14769;DHT22;7476;49.404;11.152;2022-11-23T12:14:39;15.40;99.90
14769;DHT22;7476;49.404;11.152;2022-11-23T12:17:16;15.80;99.90
14769;DHT22;7476;49.404;11.152;2022-11-23T12:19:53;15.90;99.90
14769;DHT22;7476;49.404;11.152;2022-11-23T12:22:36;15.80;99.90
14769;DHT22;7476;49.404;11.152;2022-11-23T12:25:13;15.50;99.90
14769;DHT22;7476;49.404;11.152;2022-11-23T12:27:48;15.70;99.90
14769;DHT22;7476;49.404;11.152;2022-11-23T12:30:22;15.90;99.90
14769;DHT22;7476;49.404;11.152;2022-11-23T12:36:20;17.30;99.90
14769;DHT22;7476;49.404;11.152;2022-11-23T12:38:54;17.90;99.90
14769;DHT22;7476;49.404;11.152;2022-11-23T12:41:23;18.10;99.90
14769;DHT22;7476;49.404;11.152;2022-11-23T12:44:07;17.10;99.90
14769;DHT22;7476;49.404;11.152;2022-11-23T12:46:43;16.80;99.90
14769;DHT22;7476;49.404;11.152;2022-11-23T12:49:21;16.30;99.90
14769;DHT22;7476;49.404;11.152;2022-11-23T12:51:55;16.90;99.90
14769;DHT22;7476;49.404;11.152;2022-11-23T12:54:39;17.50;99.90
14769;DHT22;7476;49.404;11.152;2022-11-23T12:57:14;17.30;99.90
14769;DHT22;7476;49.404;11.152;2022-11-23T12:59:47;16.30;99.90
14769;DHT22;7476;49.404;11.152;2022-11-23T13:02:38;15.40;99.90
14769;DHT22;7476;49.404;11.152;2022-11-23T13:05:28;15.30;99.90
14769;DHT22;7476;49.404;11.152;2022-11-23T13:11:14;16.30;99.90
14769;DHT22;7476;49.404;11.152;2022-11-23T13:14:07;17.40;99.90
14769;DHT22;7476;49.404;11.152;2022-11-23T13:17:00;17.70;99.90
14769;DHT22;7476;49.404;11.152;2022-11-23T13:19:41;17.20;99.90
14769;DHT22;7476;49.404;11.152;2022-11-23T13:22:16;17.90;99.90
14769;DHT22;7476;49.404;11.152;2022-11-23T13:25:00;18.00;99.90
14769;DHT22;7476;49.404;11.152;2022-11-23T13:27:41;17.50;99.90
14769;DHT22;7476;49.404;11.152;2022-11-23T13:30:22;16.80;99.90
14769;DHT22;7476;49.404;11.152;2022-11-23T13:32:59;16.80;99.90
14769;DHT22;7476;49.404;11.152;2022-11-23T13:35:54;16.70;99.90
14769;DHT22;7476;49.404;11.152;2022-11-23T13:38:26;16.30;99.90
14769;DHT22;7476;49.404;11.152;2022-11-23T13:40:54;16.90;99.90
14769;DHT22;7476;49.404;11.152;2022-11-23T13:43:23;17.10;99.90
14769;DHT22;7476;49.404;11.152;2022-11-23T13:46:20;17.10;99.90
14769;DHT22;7476;49.404;11.152;2022-11-23T13:48:49;17.40;99.90
14769;DHT22;7476;49.404;11.152;2022-11-23T13:51:26;16.70;99.90
14769;DHT22;7476;49.404;11.152;2022-11-23T13:53:57;15.50;99.90
14769;DHT22;7476;49.404;11.152;2022-11-23T13:56:35;14.20;99.90
14769;DHT22;7476;49.404;11.152;2022-11-23T13:59:29;14.10;99.90
14769;DHT22;7476;49.404;11.152;2022-11-23T14:01:58;14.40;99.90
14769;DHT22;7476;49.404;11.152;2022-11-23T14:04:26;14.20;99.90
14769;DHT22;7476;49.404;11.152;2022-11-23T14:06:56;14.40;99.90
14769;DHT22;7476;49.404;11.152;2022-11-23T14:09:29;13.70;99.90
14769;DHT22;7476;49.404;11.152;2022-11-23T14:12:02;12.50;99.90
14769;DHT22;7476;49.404;11.152;2022-11-23T14:14:41;11.40;99.90
14769;DHT22;7476;49.404;11.152;2022-11-23T14:17:42;10.40;99.90
14769;DHT22;7476;49.404;11.152;2022-11-23T14:23:32;11.50;99.90
14769;DHT22;7476;49.404;11.152;2022-11-23T14:26:14;11.40;99.90
14769;DHT22;7476;49.404;11.152;2022-11-23T14:28:51;10.90;99.90
14769;DHT22;7476;49.404;11.152;2022-11-23T14:31:30;11.50;99.90
14769;DHT22;7476;49.404;11.152;2022-11-23T14:34:07;12.70;99.90
14769;DHT22;7476;49.404;11.152;2022-11-23T14:36:45;13.30;99.90
14769;DHT22;7476;49.404;11.152;2022-11-23T14:42:21;13.80;99.90
14769;DHT22;7476;49.404;11.152;2022-11-23T14:44:48;12.80;99.90
14769;DHT22;7476;49.404;11.152;2022-11-23T14:47:24;12.90;99.90
14769;DHT22;7476;49.404;11.152;2022-11-23T14:49:51;12.60;99.90
14769;DHT22;7476;49.404;11.152;2022-11-23T14:52:20;12.60;99.90
14769;DHT22;7476;49.404;11.152;2022-11-23T14:54:48;12.60;99.90
14769;DHT22;7476;49.404;11.152;2022-11-23T14:57:16;12.20;99.90
14769;DHT22;7476;49.404;11.152;2022-11-23T14:59:47;11.30;99.90
14769;DHT22;7476;49.404;11.152;2022-11-23T15:02:18;10.20;99.90
14769;DHT22;7476;49.404;11.152;2022-11-23T15:04:59;9.20;99.90
14769;DHT22;7476;49.404;11.152;2022-11-23T15:07:34;8.30;99.90
14769;DHT22;7476;49.404;11.152;2022-11-23T15:10:07;7.70;99.90
14769;DHT22;7476;49.404;11.152;2022-11-23T15:12:44;7.30;99.90
14769;DHT22;7476;49.404;11.152;2022-11-23T15:15:18;6.90;99.90
14769;DHT22;7476;49.404;11.152;2022-11-23T15:17:51;6.60;99.90
14769;DHT22;7476;49.404;11.152;2022-11-23T15:20:19;6.40;99.90
14769;DHT22;7476;49.404;11.152;2022-11-23T15:22:46;6.30;99.90
14769;DHT22;7476;49.404;11.152;2022-11-23T15:25:15;6.10;99.90
14769;DHT22;7476;49.404;11.152;2022-11-23T15:27:43;5.90;99.90
14769;DHT22;7476;49.404;11.152;2022-11-23T15:30:17;5.70;99.90
14769;DHT22;7476;49.404;11.152;2022-11-23T15:32:53;5.40;99.90
14769;DHT22;7476;49.404;11.152;2022-11-23T15:35:23;5.30;99.90
14769;DHT22;7476;49.404;11.152;2022-11-23T15:37:51;5.30;99.90
14769;DHT22;7476;49.404;11.152;2022-11-23T15:40:19;5.20;99.90
14769;DHT22;7476;49.404;11.152;2022-11-23T15:42:47;5.20;99.90
14769;DHT22;7476;49.404;11.152;2022-11-23T15:45:37;5.40;99.90
14769;DHT22;7476;49.404;11.152;2022-11-23T15:48:08;5.20;99.90
14769;DHT22;7476;49.404;11.152;2022-11-23T15:50:44;5.20;99.90
14769;DHT22;7476;49.404;11.152;2022-11-23T15:53:12;5.10;99.90
14769;DHT22;7476;49.404;11.152;2022-11-23T15:55:39;5.00;99.90
14769;DHT22;7476;49.404;11.152;2022-11-23T15:58:07;4.90;99.90
14769;DHT22;7476;49.404;11.152;2022-11-23T16:00:36;4.90;99.90
14769;DHT22;7476;49.404;11.152;2022-11-23T16:03:40;5.00;99.90
14769;DHT22;7476;49.404;11.152;2022-11-23T16:06:16;4.90;99.90
14769;DHT22;7476;49.404;11.152;2022-11-23T16:08:43;4.90;99.90
14769;DHT22;7476;49.404;11.152;2022-11-23T16:11:20;4.80;99.90
14769;DHT22;7476;49.404;11.152;2022-11-23T16:13:47;4.50;99.90
14769;DHT22;7476;49.404;11.152;2022-11-23T16:16:16;4.40;99.90